createdAt,value
2023-04-15T00:01:24.941Z,4.93
2023-04-15T00:06:28.392Z,3.88
2023-04-15T00:11:33.300Z,6.93
2023-04-15T00:16:37.252Z,5.55
2023-04-15T00:21:40.674Z,7.68
2023-04-15T00:26:45.344Z,5.15
2023-04-15T00:31:48.754Z,4.25
2023-04-15T00:36:52.581Z,3.33
2023-04-15T00:41:58.771Z,4.35
2023-04-15T00:47:02.838Z,5.22
2023-04-15T00:52:06.478Z,5.55
2023-04-15T00:57:11.335Z,3.08
2023-04-15T01:02:14.796Z,5.38
2023-04-15T01:07:18.639Z,4.63
2023-04-15T01:12:24.087Z,4.45
2023-04-15T01:17:28.240Z,3.72
2023-04-15T01:22:33.461Z,7.50
2023-04-15T01:27:40.879Z,5.90
2023-04-15T01:32:44.413Z,5.28
2023-04-15T01:37:48.746Z,5.60
2023-04-15T01:42:55.228Z,3.90
2023-04-15T01:47:58.633Z,5.47
2023-04-15T01:53:02.025Z,6.63
2023-04-15T01:58:06.894Z,4.18
2023-04-15T02:03:10.938Z,5.05
2023-04-15T02:08:14.556Z,3.80
2023-04-15T02:13:19.347Z,5.65
2023-04-15T02:18:22.854Z,4.45
2023-04-15T02:23:26.577Z,7.82
2023-04-15T02:28:31.410Z,4.28
2023-04-15T02:33:34.887Z,4.05
2023-04-15T02:38:40.747Z,3.65
2023-04-15T02:43:45.866Z,4.93
2023-04-15T02:48:51.019Z,5.65
2023-04-15T02:53:54.442Z,3.72
2023-04-15T02:58:59.410Z,4.68
2023-04-15T03:04:03.207Z,6.97
2023-04-15T03:09:06.683Z,5.43
2023-04-15T03:14:13.974Z,3.67
2023-04-15T03:19:22.692Z,3.70
2023-04-15T03:24:26.297Z,5.55
2023-04-15T03:29:31.230Z,5.63
2023-04-15T03:34:36.078Z,8.77
2023-04-15T03:39:39.691Z,7.05
2023-04-15T03:44:44.456Z,5.07
2023-04-15T03:49:47.859Z,3.60
2023-04-15T03:54:51.496Z,4.47
2023-04-15T03:59:56.308Z,4.90
2023-04-15T04:04:59.841Z,5.20
2023-04-15T04:10:03.887Z,4.22
2023-04-15T04:15:09.665Z,5.30
2023-04-15T04:20:13.442Z,6.97
2023-04-15T04:25:17.101Z,4.88
2023-04-15T04:30:22.167Z,4.47
2023-04-15T04:35:25.619Z,4.45
2023-04-15T04:40:29.057Z,5.03
2023-04-15T04:45:33.803Z,4.40
2023-04-15T04:50:37.712Z,5.55
2023-04-15T04:55:41.361Z,6.82
2023-04-15T05:00:46.241Z,6.20
2023-04-15T05:05:50.249Z,6.72
2023-04-15T05:10:53.675Z,7.15
2023-04-15T05:15:58.449Z,5.93
2023-04-15T05:21:01.999Z,9.98
2023-04-15T05:26:05.605Z,7.15
2023-04-15T05:31:10.762Z,8.82
2023-04-15T05:36:14.306Z,5.78
2023-04-15T05:41:19.724Z,7.47
2023-04-15T05:46:24.971Z,7.28
2023-04-15T05:51:28.523Z,6.32
2023-04-15T05:56:31.940Z,4.32
2023-04-15T06:01:36.945Z,6.43
2023-04-15T06:06:40.589Z,8.90
2023-04-15T06:11:44.230Z,8.15
2023-04-15T06:16:49.071Z,10.07
2023-04-15T06:21:52.628Z,5.65
2023-04-15T06:26:56.387Z,5.05
2023-04-15T06:32:01.567Z,6.20
2023-04-15T06:37:06.332Z,4.60
2023-04-15T06:42:10.761Z,4.55
2023-04-15T06:47:15.837Z,7.03
2023-04-15T06:52:19.451Z,4.65
2023-04-15T06:57:22.966Z,4.40
2023-04-15T07:02:27.939Z,6.20
2023-04-15T07:07:31.699Z,3.47
2023-04-15T07:12:35.871Z,5.15
2023-04-15T07:17:41.548Z,4.45
2023-04-15T07:22:44.983Z,3.85
2023-04-15T07:27:48.571Z,3.75
2023-04-15T07:32:53.550Z,3.53
2023-04-15T07:37:57.746Z,3.53
2023-04-15T07:43:01.269Z,5.90
2023-04-15T07:48:06.946Z,6.70
2023-04-15T07:53:10.339Z,4.28
2023-04-15T07:58:13.757Z,2.75
2023-04-15T08:03:18.794Z,3.95
2023-04-15T08:08:22.343Z,5.40
2023-04-15T08:13:28.115Z,6.30
2023-04-15T08:18:32.991Z,3.08
2023-04-15T08:23:36.554Z,6.78
2023-04-15T08:28:41.890Z,3.22
2023-04-15T08:33:47.409Z,4.65
2023-04-15T08:38:55.085Z,8.75
2023-04-15T08:44:00.048Z,3.55
2023-04-15T08:49:07.144Z,6.10
2023-04-15T09:00:48.800Z,3.15
2023-04-15T09:05:54.712Z,3.83
2023-04-15T09:10:58.161Z,3.72
2023-04-15T09:16:04.050Z,5.93
2023-04-15T09:21:11.352Z,5.18
2023-04-15T09:26:17.671Z,4.75
2023-04-15T09:31:31.324Z,6.13
2023-04-15T09:36:54.031Z,3.08
2023-04-15T09:42:08.090Z,3.38
2023-04-15T09:47:31.662Z,4.15
2023-04-15T09:52:49.143Z,3.78
2023-04-15T09:57:52.725Z,3.95
2023-04-15T10:02:56.633Z,4.38
2023-04-15T10:08:02.597Z,4.65
2023-04-15T10:13:14.805Z,4.28
2023-04-15T10:18:21.022Z,3.75
2023-04-15T10:23:27.472Z,2.90
2023-04-15T10:28:30.945Z,6.15
2023-04-15T10:33:35.099Z,3.33
2023-04-15T10:38:41.778Z,7.57
2023-04-15T10:43:53.457Z,4.63
2023-04-15T10:48:57.648Z,3.72
2023-04-15T10:54:02.591Z,2.97
2023-04-15T10:59:07.467Z,6.35
2023-04-15T11:04:11.296Z,6.07
2023-04-15T11:09:33.127Z,4.07
2023-04-15T11:14:43.259Z,5.30
2023-04-15T11:19:47.024Z,3.35
2023-04-15T11:24:52.045Z,6.57
2023-04-15T11:29:55.541Z,6.43
2023-04-15T11:34:59.342Z,5.18
2023-04-15T11:40:05.846Z,4.57
2023-04-15T11:45:10.276Z,3.17
2023-04-15T11:50:21.181Z,4.15
2023-04-15T11:55:26.499Z,6.30
2023-04-15T12:00:29.926Z,3.83
2023-04-15T12:05:48.502Z,3.85
2023-04-15T12:11:00.781Z,4.38
2023-04-15T12:16:04.849Z,5.00
2023-04-15T12:21:11.447Z,3.88
2023-04-15T12:26:16.483Z,6.03
2023-04-15T12:31:20.026Z,3.08
2023-04-15T12:36:30.320Z,2.42
2023-04-15T12:46:38.962Z,2.95
2023-04-15T12:51:43.058Z,2.47
2023-04-15T12:56:49.985Z,2.13
2023-04-15T13:01:54.722Z,2.58
2023-04-15T13:06:58.494Z,4.07
2023-04-15T13:12:04.721Z,4.82
2023-04-15T13:17:10.262Z,1.35
2023-04-15T13:22:14.995Z,4.00
2023-04-15T13:27:19.799Z,2.35
2023-04-15T13:32:23.291Z,1.30
2023-04-15T13:37:28.027Z,2.45
2023-04-15T13:42:34.138Z,1.90
2023-04-15T13:47:38.065Z,2.75
2023-04-15T13:52:41.522Z,2.30
2023-04-15T13:57:46.680Z,2.22
2023-04-15T14:02:50.744Z,1.25
2023-04-15T14:07:54.420Z,4.35
2023-04-15T14:12:59.276Z,2.38
2023-04-15T14:18:03.482Z,4.53
2023-04-15T14:23:06.997Z,2.05
2023-04-15T14:28:11.800Z,2.55
2023-04-15T14:33:16.326Z,3.35
2023-04-15T14:38:20.035Z,3.70
2023-04-15T14:43:24.788Z,3.63
2023-04-15T14:48:28.479Z,3.55
2023-04-15T14:53:31.832Z,2.08
2023-04-15T14:58:36.636Z,1.45
2023-04-15T15:03:40.657Z,2.63
2023-04-15T15:08:44.426Z,1.75
2023-04-15T15:13:49.281Z,1.85
2023-04-15T15:18:52.755Z,1.30
2023-04-15T15:23:56.126Z,1.10
2023-04-15T15:29:01.207Z,1.05
2023-04-15T15:34:05.485Z,1.85
2023-04-15T15:39:11.696Z,1.25
2023-04-15T15:44:16.454Z,1.83
2023-04-15T15:49:20.589Z,1.70
2023-04-15T15:54:24.115Z,1.92
2023-04-15T15:59:28.987Z,1.58
2023-04-15T16:04:32.718Z,1.90
2023-04-15T16:09:36.352Z,3.33
2023-04-15T16:14:43.123Z,2.97
2023-04-15T16:19:59.861Z,2.60
2023-04-15T16:25:04.686Z,2.05
2023-04-15T16:30:11.338Z,1.77
2023-04-15T16:35:16.245Z,2.70
2023-04-15T16:40:19.864Z,2.33
2023-04-15T16:45:24.702Z,1.95
2023-04-15T16:50:28.153Z,1.80
2023-04-15T16:55:31.591Z,3.30
2023-04-15T17:00:37.072Z,2.00
2023-04-15T17:05:42.204Z,1.90
2023-04-15T17:10:45.637Z,2.25
2023-04-15T17:15:50.351Z,1.40
2023-04-15T17:20:53.846Z,2.42
2023-04-15T17:25:57.248Z,2.40
2023-04-15T17:31:02.200Z,2.72
2023-04-15T17:36:05.944Z,1.50
2023-04-15T17:41:09.332Z,1.88
2023-04-15T17:46:14.600Z,1.30
2023-04-15T17:51:18.055Z,0.90
2023-04-15T17:56:21.556Z,1.05
2023-04-15T18:01:26.510Z,1.10
2023-04-15T18:06:30.083Z,1.10
2023-04-15T18:11:34.185Z,3.28
2023-04-15T18:16:40.160Z,1.50
2023-04-15T18:21:43.557Z,1.48
2023-04-15T18:26:48.986Z,1.90
2023-04-15T18:31:54.245Z,1.60
2023-04-15T18:36:58.166Z,1.40
2023-04-15T18:42:01.931Z,2.42
2023-04-15T18:47:06.744Z,1.75
2023-04-15T18:52:10.742Z,1.42
2023-04-15T18:57:14.128Z,1.80
2023-04-15T19:02:25.310Z,2.25
2023-04-15T19:07:28.813Z,2.45
2023-04-15T19:12:32.213Z,2.40
2023-04-15T19:17:37.027Z,3.08
2023-04-15T19:22:40.607Z,2.65
2023-04-15T19:27:43.992Z,2.88
2023-04-15T19:32:48.841Z,3.67
2023-04-15T19:37:52.271Z,2.88
2023-04-15T19:42:55.871Z,3.45
2023-04-15T19:48:00.776Z,3.83
2023-04-15T19:53:04.339Z,4.07
2023-04-15T19:58:07.779Z,4.07
2023-04-15T20:03:13.186Z,8.23
2023-04-15T20:08:16.895Z,4.30
2023-04-15T20:13:20.538Z,4.05
2023-04-15T20:18:25.368Z,3.95
2023-04-15T20:23:28.745Z,8.05
2023-04-15T20:28:32.282Z,4.00
2023-04-15T20:33:37.165Z,4.25
2023-04-15T20:38:40.640Z,3.45
2023-04-15T20:43:44.041Z,3.70
2023-04-15T20:48:49.296Z,4.57
2023-04-15T20:53:52.775Z,4.10
2023-04-15T20:58:56.481Z,4.40
2023-04-15T21:04:01.420Z,4.22
2023-04-15T21:09:05.001Z,4.78
2023-04-15T21:14:09.229Z,4.85
2023-04-15T21:19:14.354Z,4.68
2023-04-15T21:24:17.858Z,5.32
2023-04-15T21:29:21.395Z,5.00
2023-04-15T21:34:26.662Z,5.05
2023-04-15T21:39:30.102Z,6.18
2023-04-15T21:44:33.565Z,5.93
2023-04-15T21:49:39.617Z,7.13
2023-04-15T21:54:43.187Z,6.32
2023-04-15T21:59:46.975Z,6.45
2023-04-15T22:04:52.027Z,5.43
2023-04-15T22:10:01.662Z,6.90
2023-04-15T22:15:06.130Z,6.70
2023-04-15T22:20:13.351Z,6.15
2023-04-15T22:25:16.905Z,6.10
2023-04-15T22:30:20.736Z,6.65
2023-04-15T22:35:25.769Z,7.32
2023-04-15T22:40:31.044Z,7.32
2023-04-15T22:45:35.935Z,5.95
2023-04-15T22:50:41.256Z,6.65
2023-04-15T22:55:54.094Z,7.78
2023-04-15T23:00:59.164Z,6.35
2023-04-15T23:06:04.117Z,6.03
2023-04-15T23:11:08.685Z,6.57
2023-04-15T23:16:12.304Z,7.07
2023-04-15T23:21:17.165Z,6.63
2023-04-15T23:26:20.635Z,7.25
2023-04-15T23:31:24.157Z,6.88
2023-04-15T23:36:29.144Z,6.47
2023-04-15T23:41:33.854Z,8.25
2023-04-15T23:46:37.408Z,6.35
2023-04-15T23:51:42.189Z,7.85
2023-04-15T23:56:46.160Z,6.38
